createdAt,value
2024-04-12T00:00:17.831Z,23.70
2024-04-12T00:01:17.823Z,23.70
2024-04-12T00:02:17.879Z,23.70
2024-04-12T00:03:17.933Z,23.69
2024-04-12T00:04:18.038Z,23.69
2024-04-12T00:05:18.022Z,23.69
2024-04-12T00:06:18.142Z,23.69
2024-04-12T00:07:19.370Z,23.69
2024-04-12T00:08:18.200Z,23.68
2024-04-12T00:09:18.253Z,23.69
2024-04-12T00:10:18.268Z,23.69
2024-04-12T00:11:18.538Z,23.68
2024-04-12T00:12:18.370Z,23.68
2024-04-12T00:13:18.391Z,23.68
2024-04-12T00:14:18.500Z,23.68
2024-04-12T00:15:19.421Z,23.67
2024-04-12T00:16:18.592Z,23.67
2024-04-12T00:17:18.712Z,23.67
2024-04-12T00:18:18.550Z,23.67
2024-04-12T00:19:18.585Z,23.66
2024-04-12T00:20:18.611Z,23.66
2024-04-12T00:21:18.689Z,23.66
2024-04-12T00:22:18.723Z,23.66
2024-04-12T00:23:18.798Z,23.66
2024-04-12T00:24:18.883Z,23.65
2024-04-12T00:25:18.944Z,23.65
2024-04-12T00:26:18.959Z,23.65
2024-04-12T00:27:19.032Z,23.64
2024-04-12T00:28:19.074Z,23.65
2024-04-12T00:29:19.139Z,23.65
2024-04-12T00:30:19.239Z,23.65
2024-04-12T00:31:19.246Z,23.63
2024-04-12T00:32:19.348Z,23.64
2024-04-12T00:33:19.457Z,23.64
2024-04-12T00:34:19.392Z,23.64
2024-04-12T00:35:19.449Z,23.64
2024-04-12T00:36:19.565Z,23.63
2024-04-12T00:37:19.643Z,23.63
2024-04-12T00:38:19.622Z,23.62
2024-04-12T00:39:19.685Z,23.62
2024-04-12T00:40:19.744Z,23.63
2024-04-12T00:41:19.807Z,23.62
2024-04-12T00:42:19.891Z,23.62
2024-04-12T00:43:20.076Z,23.62
2024-04-12T00:44:20.004Z,23.61
2024-04-12T00:45:20.103Z,23.61
2024-04-12T00:46:20.143Z,23.61
2024-04-12T00:47:20.229Z,23.62
2024-04-12T00:48:20.330Z,23.61
2024-04-12T00:49:20.323Z,23.61
2024-04-12T00:50:20.347Z,23.61
2024-04-12T00:51:20.449Z,23.60
2024-04-12T00:52:20.492Z,23.60
2024-04-12T00:53:20.560Z,23.60
2024-04-12T00:54:20.604Z,23.60
2024-04-12T00:55:20.654Z,23.60
2024-04-12T00:56:20.760Z,23.59
2024-04-12T00:57:20.776Z,23.59
2024-04-12T00:58:20.843Z,23.59
2024-04-12T00:59:20.925Z,23.59
2024-04-12T01:00:21.488Z,23.59
2024-04-12T01:01:21.028Z,23.57
2024-04-12T01:02:21.111Z,23.58
2024-04-12T01:03:21.220Z,23.57
2024-04-12T01:04:21.225Z,23.58
2024-04-12T01:05:21.433Z,23.57
2024-04-12T01:06:21.309Z,23.57
2024-04-12T01:07:21.356Z,23.57
2024-04-12T01:08:21.413Z,23.57
2024-04-12T01:09:21.656Z,23.57
2024-04-12T01:10:21.624Z,23.57
2024-04-12T01:11:21.835Z,23.57
2024-04-12T01:12:21.692Z,23.56
2024-04-12T01:13:21.756Z,23.56
2024-04-12T01:14:21.801Z,23.56
2024-04-12T01:15:21.842Z,23.56
2024-04-12T01:16:21.926Z,23.55
2024-04-12T01:17:22.040Z,23.55
2024-04-12T01:18:22.689Z,23.55
2024-04-12T01:19:22.119Z,23.55
2024-04-12T01:20:22.219Z,23.55
2024-04-12T01:21:22.263Z,23.55
2024-04-12T01:22:22.339Z,23.55
2024-04-12T01:23:22.384Z,23.53
2024-04-12T01:24:22.448Z,23.54
2024-04-12T01:25:22.511Z,23.54
2024-04-12T01:26:22.568Z,23.53
2024-04-12T01:27:22.632Z,23.53
2024-04-12T01:28:22.679Z,23.53
2024-04-12T01:29:22.721Z,23.52
2024-04-12T01:30:22.792Z,23.52
2024-04-12T01:31:22.844Z,23.52
2024-04-12T01:32:22.962Z,23.53
2024-04-12T01:33:22.986Z,23.52
2024-04-12T01:34:23.023Z,23.52
2024-04-12T01:35:23.077Z,23.52
2024-04-12T01:36:23.174Z,23.51
2024-04-12T01:37:23.202Z,23.52
2024-04-12T01:38:23.259Z,23.52
2024-04-12T01:39:23.365Z,23.51
2024-04-12T01:40:23.418Z,23.51
2024-04-12T01:41:23.484Z,23.51
2024-04-12T01:42:23.536Z,23.50
2024-04-12T01:43:25.540Z,23.50
2024-04-12T01:44:23.663Z,23.50
2024-04-12T01:45:23.830Z,23.50
2024-04-12T01:46:23.766Z,23.50
2024-04-12T01:47:23.843Z,23.50
2024-04-12T01:48:24.146Z,23.49
2024-04-12T01:49:24.055Z,23.49
2024-04-12T01:50:24.366Z,23.49
2024-04-12T01:51:23.963Z,23.49
2024-04-12T01:52:24.031Z,23.49
2024-04-12T01:53:24.181Z,23.48
2024-04-12T01:54:24.095Z,23.48
2024-04-12T01:55:24.160Z,23.48
2024-04-12T01:56:24.211Z,23.48
2024-04-12T01:57:24.207Z,23.48
2024-04-12T01:58:24.255Z,23.47
2024-04-12T01:59:24.318Z,23.48
2024-04-12T02:00:24.330Z,23.47
2024-04-12T02:01:24.409Z,23.48
2024-04-12T02:02:24.423Z,23.47
2024-04-12T02:03:24.531Z,23.47
2024-04-12T02:04:24.613Z,23.47
2024-04-12T02:05:24.569Z,23.47
2024-04-12T02:06:24.602Z,23.47
2024-04-12T02:07:24.625Z,23.46
2024-04-12T02:08:24.690Z,23.46
2024-04-12T02:09:24.746Z,23.46
2024-04-12T02:10:24.855Z,23.46
2024-04-12T02:11:25.160Z,23.46
2024-04-12T02:12:24.885Z,23.46
2024-04-12T02:13:25.118Z,23.45
2024-04-12T02:14:24.948Z,23.44
2024-04-12T02:15:24.990Z,23.44
2024-04-12T02:16:25.069Z,23.44
2024-04-12T02:17:25.104Z,23.44
2024-04-12T02:18:25.566Z,23.44
2024-04-12T02:19:25.173Z,23.44
2024-04-12T02:20:25.231Z,23.43
2024-04-12T02:21:25.292Z,23.44
2024-04-12T02:22:25.333Z,23.43
2024-04-12T02:23:25.383Z,23.44
2024-04-12T02:24:25.413Z,23.43
2024-04-12T02:25:25.492Z,23.43
2024-04-12T02:26:25.950Z,23.43
2024-04-12T02:27:25.571Z,23.42
2024-04-12T02:28:25.617Z,23.42
2024-04-12T02:29:25.701Z,23.41
2024-04-12T02:30:25.738Z,23.42
2024-04-12T02:31:25.769Z,23.42
2024-04-12T02:32:25.897Z,23.41
2024-04-12T02:33:25.984Z,23.41
2024-04-12T02:34:25.937Z,23.41
2024-04-12T02:35:26.004Z,23.41
2024-04-12T02:36:26.011Z,23.40
2024-04-12T02:37:26.060Z,23.40
2024-04-12T02:38:26.165Z,23.40
2024-04-12T02:39:26.178Z,23.40
2024-04-12T02:40:26.212Z,23.40
2024-04-12T02:41:26.249Z,23.40
2024-04-12T02:42:26.302Z,23.39
2024-04-12T02:43:26.369Z,23.39
2024-04-12T02:44:26.583Z,23.39
2024-04-12T02:45:26.485Z,23.39
2024-04-12T02:46:26.587Z,23.39
2024-04-12T02:47:26.635Z,23.38
2024-04-12T02:48:26.786Z,23.38
2024-04-12T02:49:26.758Z,23.38
2024-04-12T02:50:26.815Z,23.38
2024-04-12T02:51:26.890Z,23.37
2024-04-12T02:52:26.935Z,23.37
2024-04-12T02:53:27.008Z,23.37
2024-04-12T02:54:27.337Z,23.37
2024-04-12T02:55:27.155Z,23.36
2024-04-12T02:56:27.197Z,23.36
2024-04-12T02:57:27.276Z,23.36
2024-04-12T02:58:27.341Z,23.36
2024-04-12T02:59:27.392Z,23.36
2024-04-12T03:00:27.560Z,23.35
2024-04-12T03:01:27.700Z,23.35
2024-04-12T03:02:27.665Z,23.35
2024-04-12T03:03:27.745Z,23.34
2024-04-12T03:04:27.740Z,23.35
2024-04-12T03:05:27.847Z,23.35
2024-04-12T03:06:27.894Z,23.34
2024-04-12T03:07:27.933Z,23.33
2024-04-12T03:08:28.012Z,23.34
2024-04-12T03:09:28.075Z,23.34
2024-04-12T03:10:28.158Z,23.34
2024-04-12T03:11:28.235Z,23.34
2024-04-12T03:12:28.314Z,23.33
2024-04-12T03:13:28.362Z,23.33
2024-04-12T03:14:28.431Z,23.32
2024-04-12T03:15:28.560Z,23.32
2024-04-12T03:16:28.601Z,23.33
2024-04-12T03:17:28.671Z,23.32
2024-04-12T03:18:29.224Z,23.31
2024-04-12T03:19:28.786Z,23.31
2024-04-12T03:20:28.874Z,23.31
2024-04-12T03:21:28.995Z,23.32
2024-04-12T03:22:29.012Z,23.31
2024-04-12T03:23:29.095Z,23.31
2024-04-12T03:24:29.145Z,23.31
2024-04-12T03:25:29.212Z,23.31
2024-04-12T03:26:29.330Z,23.31
2024-04-12T03:27:29.367Z,23.31
2024-04-12T03:28:29.451Z,23.31
2024-04-12T03:29:29.537Z,23.30
2024-04-12T03:30:29.585Z,23.30
2024-04-12T03:31:29.662Z,23.30
2024-04-12T03:32:29.754Z,23.29
2024-04-12T03:33:29.945Z,23.29
2024-04-12T03:34:29.876Z,23.29
2024-04-12T03:35:29.950Z,23.29
2024-04-12T03:36:30.024Z,23.29
2024-04-12T03:37:30.102Z,23.29
2024-04-12T03:38:30.165Z,23.29
2024-04-12T03:39:30.224Z,23.29
2024-04-12T03:40:30.315Z,23.29
2024-04-12T03:41:30.388Z,23.28
2024-04-12T03:42:30.445Z,23.28
2024-04-12T03:43:30.515Z,23.28
2024-04-12T03:44:30.620Z,23.29
2024-04-12T03:45:30.674Z,23.28
2024-04-12T03:46:30.751Z,23.29
2024-04-12T03:47:30.878Z,23.30
2024-04-12T03:48:31.028Z,23.30
2024-04-12T03:49:30.951Z,23.31
2024-04-12T03:50:31.035Z,23.31
2024-04-12T03:51:31.096Z,23.32
2024-04-12T03:52:31.165Z,23.32
2024-04-12T03:53:31.252Z,23.33
2024-04-12T03:54:31.309Z,23.32
2024-04-12T03:55:31.396Z,23.33
2024-04-12T03:56:31.444Z,23.33
2024-04-12T03:57:31.569Z,23.32
2024-04-12T03:58:31.590Z,23.32
2024-04-12T03:59:31.654Z,23.33
2024-04-12T04:00:31.731Z,23.33
2024-04-12T04:01:31.826Z,23.33
2024-04-12T04:02:31.879Z,23.34
2024-04-12T04:03:31.968Z,23.33
2024-04-12T04:04:31.998Z,23.33
2024-04-12T04:05:32.083Z,23.33
2024-04-12T04:06:32.124Z,23.34
2024-04-12T04:07:32.210Z,23.34
2024-04-12T04:08:32.259Z,23.34
2024-04-12T04:09:32.323Z,23.34
2024-04-12T04:10:32.437Z,23.34
2024-04-12T04:11:32.466Z,23.34
2024-04-12T04:12:32.524Z,23.34
2024-04-12T04:13:32.619Z,23.34
2024-04-12T04:14:32.682Z,23.34
2024-04-12T04:15:32.724Z,23.34
2024-04-12T04:16:32.783Z,23.35
2024-04-12T04:17:40.148Z,23.30
2024-04-12T04:18:40.218Z,23.33
2024-04-12T04:19:40.072Z,23.33
2024-04-12T04:20:40.077Z,23.34
2024-04-12T04:21:40.082Z,23.34
2024-04-12T04:22:40.091Z,23.34
2024-04-12T04:23:40.083Z,23.35
2024-04-12T04:24:40.084Z,23.34
2024-04-12T04:25:40.133Z,23.35
2024-04-12T04:26:40.173Z,23.35
2024-04-12T04:27:40.229Z,23.35
2024-04-12T04:28:40.069Z,23.34
2024-04-12T04:29:40.100Z,23.35
2024-04-12T04:30:40.111Z,23.35
2024-04-12T04:31:40.082Z,23.35
2024-04-12T04:32:40.306Z,23.35
2024-04-12T04:33:40.273Z,23.35
2024-04-12T04:34:40.071Z,23.35
2024-04-12T04:35:40.102Z,23.35
2024-04-12T04:36:40.104Z,23.35
2024-04-12T04:37:40.260Z,23.35
2024-04-12T04:38:40.144Z,23.34
2024-04-12T04:39:40.134Z,23.35
2024-04-12T04:40:40.157Z,23.35
2024-04-12T04:41:40.207Z,23.34
2024-04-12T04:42:40.125Z,23.35
2024-04-12T04:43:40.137Z,23.34
2024-04-12T04:44:40.154Z,23.34
2024-04-12T04:45:40.322Z,23.35
2024-04-12T04:46:40.255Z,23.35
2024-04-12T04:47:40.469Z,23.35
2024-04-12T04:48:40.627Z,23.34
2024-04-12T04:49:40.452Z,23.35
2024-04-12T04:50:40.543Z,23.34
2024-04-12T04:51:40.609Z,23.34
2024-04-12T04:52:40.650Z,23.34
2024-04-12T04:53:40.760Z,23.34
2024-04-12T04:54:40.868Z,23.34
2024-04-12T04:55:40.882Z,23.34
2024-04-12T04:56:40.988Z,23.34
2024-04-12T04:57:41.050Z,23.34
2024-04-12T04:58:41.154Z,23.34
2024-04-12T04:59:41.174Z,23.35
2024-04-12T05:00:41.291Z,23.34
2024-04-12T05:01:41.348Z,23.34
2024-04-12T05:02:41.370Z,23.34
2024-04-12T05:03:41.472Z,23.34
2024-04-12T05:04:41.502Z,23.35
2024-04-12T05:05:41.595Z,23.35
2024-04-12T05:06:44.942Z,23.35
2024-04-12T05:07:41.628Z,23.35
2024-04-12T05:08:41.650Z,23.34
2024-04-12T05:09:41.636Z,23.34
2024-04-12T05:10:41.646Z,23.35
2024-04-12T05:11:41.818Z,23.35
2024-04-12T05:12:41.735Z,23.35
2024-04-12T05:13:41.670Z,23.35
2024-04-12T05:14:41.684Z,23.35
2024-04-12T05:15:41.897Z,23.36
2024-04-12T05:16:41.663Z,23.36
2024-04-12T05:17:41.808Z,23.35
2024-04-12T05:18:41.850Z,23.34
2024-04-12T05:19:41.970Z,23.35
2024-04-12T05:20:41.695Z,23.36
2024-04-12T05:21:41.670Z,23.37
2024-04-12T05:22:41.669Z,23.37
2024-04-12T05:23:41.672Z,23.35
2024-04-12T05:24:41.858Z,23.36
2024-04-12T05:25:41.837Z,23.36
2024-04-12T05:26:41.689Z,23.35
2024-04-12T05:27:41.674Z,23.37
2024-04-12T05:28:41.668Z,23.39
2024-04-12T05:29:41.715Z,23.40
2024-04-12T05:30:41.685Z,23.41
2024-04-12T05:31:41.673Z,23.42
2024-04-12T05:32:41.809Z,23.43
2024-04-12T05:33:41.715Z,23.44
2024-04-12T05:34:41.674Z,23.44
2024-04-12T05:35:41.772Z,23.45
2024-04-12T05:36:41.682Z,23.46
2024-04-12T05:37:41.690Z,23.47
2024-04-12T05:38:41.771Z,23.47
2024-04-12T05:39:41.684Z,23.48
2024-04-12T05:40:41.695Z,23.49
2024-04-12T05:41:41.772Z,23.50
2024-04-12T05:42:41.686Z,23.51
2024-04-12T05:43:41.694Z,23.51
2024-04-12T05:44:41.768Z,23.53
2024-04-12T05:45:41.751Z,23.52
2024-04-12T05:46:41.713Z,23.42
2024-04-12T05:47:42.026Z,23.31
2024-04-12T05:48:41.762Z,23.25
2024-04-12T05:49:41.710Z,23.21
2024-04-12T05:50:41.794Z,23.04
2024-04-12T05:51:41.725Z,22.90
2024-04-12T05:52:41.803Z,22.84
2024-04-12T05:53:41.847Z,22.52
2024-04-12T05:54:41.847Z,21.90
2024-04-12T05:55:41.846Z,21.46
2024-04-12T05:56:41.945Z,21.14
2024-04-12T05:57:41.984Z,20.90
2024-04-12T05:58:42.024Z,20.65
2024-04-12T05:59:42.278Z,20.64
2024-04-12T06:00:42.201Z,20.58
2024-04-12T06:01:42.327Z,20.38
2024-04-12T06:02:42.459Z,20.49
2024-04-12T06:03:42.498Z,20.70
2024-04-12T06:04:42.528Z,20.89
2024-04-12T06:05:42.620Z,21.07
2024-04-12T06:06:42.757Z,21.24
2024-04-12T06:07:42.829Z,21.39
2024-04-12T06:08:42.924Z,21.55
2024-04-12T06:09:42.988Z,21.68
2024-04-12T06:10:43.039Z,21.80
2024-04-12T06:11:43.382Z,21.93
2024-04-12T06:12:43.219Z,22.03
2024-04-12T06:13:43.262Z,22.15
2024-04-12T06:14:43.320Z,22.23
2024-04-12T06:15:43.390Z,22.32
2024-04-12T06:16:43.552Z,22.39
2024-04-12T06:17:43.626Z,22.49
2024-04-12T06:18:43.641Z,22.55
2024-04-12T06:19:43.799Z,22.64
2024-04-12T06:20:43.887Z,22.69
2024-04-12T06:21:49.009Z,22.75
2024-04-12T06:22:43.981Z,22.80
2024-04-12T06:23:43.995Z,22.85
2024-04-12T06:24:44.172Z,22.89
2024-04-12T06:25:43.997Z,22.94
2024-04-12T06:26:44.035Z,22.97
2024-04-12T06:27:43.996Z,23.00
2024-04-12T06:28:44.007Z,23.03
2024-04-12T06:29:44.110Z,23.05
2024-04-12T06:30:44.166Z,23.08
2024-04-12T06:31:44.270Z,23.09
2024-04-12T06:32:44.427Z,23.12
2024-04-12T06:33:44.517Z,23.15
2024-04-12T06:34:44.575Z,23.13
2024-04-12T06:35:44.704Z,23.16
2024-04-12T06:36:44.773Z,23.17
2024-04-12T06:37:44.861Z,23.12
2024-04-12T06:38:45.123Z,23.11
2024-04-12T06:39:45.126Z,23.12
2024-04-12T06:40:45.186Z,23.13
2024-04-12T06:41:45.350Z,23.17
2024-04-12T06:42:45.387Z,23.20
2024-04-12T06:43:45.491Z,23.16
2024-04-12T06:44:45.606Z,23.16
2024-04-12T06:45:45.696Z,23.14
2024-04-12T06:46:45.871Z,23.12
2024-04-12T06:47:46.029Z,23.13
2024-04-12T06:48:46.128Z,23.16
2024-04-12T06:49:46.616Z,23.22
2024-04-12T06:50:46.156Z,23.23
2024-04-12T06:51:46.181Z,23.26
2024-04-12T06:52:46.200Z,23.13
2024-04-12T06:53:46.883Z,23.00
2024-04-12T06:54:46.381Z,22.76
2024-04-12T06:55:46.305Z,22.38
2024-04-12T06:56:46.420Z,22.28
2024-04-12T06:57:46.394Z,22.32
2024-04-12T06:58:46.483Z,22.35
2024-04-12T06:59:46.592Z,22.42
2024-04-12T07:00:46.661Z,22.51
2024-04-12T07:01:46.752Z,22.62
2024-04-12T07:02:46.974Z,22.72
2024-04-12T07:03:47.212Z,22.82
2024-04-12T07:04:47.107Z,22.90
2024-04-12T07:05:47.212Z,22.98
2024-04-12T07:06:47.294Z,23.06
2024-04-12T07:07:47.406Z,23.14
2024-04-12T07:08:47.488Z,23.21
2024-04-12T07:09:47.632Z,23.29
2024-04-12T07:10:47.663Z,23.34
2024-04-12T07:11:47.777Z,23.41
2024-04-12T07:12:47.787Z,23.46
2024-04-12T07:13:47.854Z,23.51
2024-04-12T07:14:47.966Z,23.55
2024-04-12T07:15:47.984Z,23.59
2024-04-12T07:16:48.120Z,23.62
2024-04-12T07:17:48.171Z,23.65
2024-04-12T07:18:48.198Z,23.68
2024-04-12T07:19:48.220Z,23.70
2024-04-12T07:20:48.321Z,23.74
2024-04-12T07:21:48.400Z,23.78
2024-04-12T07:22:48.420Z,23.80
2024-04-12T07:23:48.503Z,23.81
2024-04-12T07:24:48.500Z,23.83
2024-04-12T07:25:48.552Z,23.84
2024-04-12T07:26:48.728Z,23.84
2024-04-12T07:27:48.705Z,23.87
2024-04-12T07:28:48.747Z,23.88
2024-04-12T07:29:48.901Z,23.86
2024-04-12T07:30:48.926Z,23.86
2024-04-12T07:31:48.942Z,23.85
2024-04-12T07:32:49.086Z,23.84
2024-04-12T07:33:49.154Z,23.77
2024-04-12T07:34:49.164Z,23.70
2024-04-12T07:35:49.206Z,23.66
2024-04-12T07:36:49.248Z,23.65
2024-04-12T07:37:49.294Z,23.66
2024-04-12T07:38:49.373Z,23.67
2024-04-12T07:39:49.405Z,23.67
2024-04-12T07:40:49.473Z,23.67
2024-04-12T07:41:49.600Z,23.67
2024-04-12T07:42:49.663Z,23.66
2024-04-12T07:43:49.647Z,23.67
2024-04-12T07:44:49.823Z,23.66
2024-04-12T07:45:49.826Z,23.64
2024-04-12T07:46:49.864Z,23.51
2024-04-12T07:47:50.089Z,23.41
2024-04-12T07:48:50.232Z,23.27
2024-04-12T07:49:50.153Z,23.00
2024-04-12T07:50:50.297Z,22.87
2024-04-12T07:51:50.393Z,22.83
2024-04-12T07:52:50.487Z,22.81
2024-04-12T07:53:50.586Z,22.83
2024-04-12T07:54:50.699Z,22.83
2024-04-12T07:55:53.428Z,22.83
2024-04-12T07:56:50.849Z,22.84
2024-04-12T07:57:50.840Z,22.84
2024-04-12T07:58:50.832Z,22.85
2024-04-12T07:59:50.856Z,22.84
2024-04-12T08:00:50.842Z,22.85
2024-04-12T08:01:50.869Z,22.85
2024-04-12T08:02:51.019Z,22.85
2024-04-12T08:03:51.034Z,22.86
2024-04-12T08:04:50.845Z,22.86
2024-04-12T08:05:50.902Z,22.84
2024-04-12T08:06:50.861Z,22.85
2024-04-12T08:07:50.843Z,22.85
2024-04-12T08:08:50.907Z,22.85
2024-04-12T08:09:50.866Z,22.83
2024-04-12T08:10:50.874Z,22.81
2024-04-12T08:11:50.888Z,22.81
2024-04-12T08:12:50.883Z,22.80
2024-04-12T08:13:50.882Z,22.80
2024-04-12T08:14:50.888Z,22.81
2024-04-12T08:15:50.879Z,22.80
2024-04-12T08:16:50.919Z,22.81
2024-04-12T08:17:51.110Z,22.80
2024-04-12T08:18:50.948Z,22.79
2024-04-12T08:19:50.909Z,22.78
2024-04-12T08:20:50.898Z,22.77
2024-04-12T08:21:50.881Z,22.76
2024-04-12T08:22:50.900Z,22.75
2024-04-12T08:23:50.961Z,22.75
2024-04-12T08:24:51.011Z,22.74
2024-04-12T08:25:50.879Z,22.73
2024-04-12T08:26:50.917Z,22.71
2024-04-12T08:27:51.002Z,22.71
2024-04-12T08:28:51.133Z,22.72
2024-04-12T08:29:51.230Z,22.72
2024-04-12T08:30:51.330Z,22.72
2024-04-12T08:31:51.582Z,22.71
2024-04-12T08:32:51.734Z,22.71
2024-04-12T08:33:52.752Z,22.70
2024-04-12T08:34:51.803Z,22.70
2024-04-12T08:35:51.935Z,22.70
2024-04-12T08:36:52.014Z,22.70
2024-04-12T08:37:55.041Z,22.70
2024-04-12T08:38:52.169Z,22.69
2024-04-12T08:39:52.129Z,22.69
2024-04-12T08:40:52.154Z,22.69
2024-04-12T08:41:52.207Z,22.69
2024-04-12T08:42:52.133Z,22.69
2024-04-12T08:43:52.166Z,22.69
2024-04-12T08:44:52.160Z,22.69
2024-04-12T08:45:52.153Z,22.70
2024-04-12T08:46:52.170Z,22.71
2024-04-12T08:47:52.208Z,22.70
2024-04-12T08:48:52.266Z,22.71
2024-04-12T08:49:59.540Z,22.69
2024-04-12T08:50:59.563Z,22.71
2024-04-12T08:51:59.585Z,22.73
2024-04-12T08:52:59.569Z,22.71
2024-04-12T08:53:59.610Z,22.71
2024-04-12T08:54:59.589Z,22.72
2024-04-12T08:55:59.606Z,22.73
2024-04-12T08:56:59.636Z,22.74
2024-04-12T08:57:59.742Z,22.75
2024-04-12T08:58:59.837Z,22.76
2024-04-12T09:00:00.361Z,22.76
2024-04-12T09:01:00.050Z,22.77
2024-04-12T09:02:00.062Z,22.78
2024-04-12T09:03:01.296Z,22.78
2024-04-12T09:04:00.183Z,22.78
2024-04-12T09:05:00.211Z,22.77
2024-04-12T09:06:00.283Z,22.78
2024-04-12T09:07:00.356Z,22.77
2024-04-12T09:08:02.048Z,22.76
2024-04-12T09:09:00.514Z,22.75
2024-04-12T09:10:00.467Z,22.75
2024-04-12T09:11:04.004Z,22.73
2024-04-12T09:12:00.559Z,22.72
2024-04-12T09:13:00.499Z,22.71
2024-04-12T09:14:00.485Z,22.71
2024-04-12T09:15:00.688Z,22.71
2024-04-12T09:16:00.468Z,22.71
2024-04-12T09:17:00.495Z,22.70
2024-04-12T09:18:00.632Z,22.68
2024-04-12T09:19:00.631Z,22.69
2024-04-12T09:20:00.498Z,22.69
2024-04-12T09:21:02.804Z,22.69
2024-04-12T09:22:00.502Z,22.69
2024-04-12T09:23:00.491Z,22.69
2024-04-12T09:24:00.580Z,22.70
2024-04-12T09:25:00.547Z,22.70
2024-04-12T09:26:01.745Z,22.71
2024-04-12T09:27:00.582Z,22.71
2024-04-12T09:28:00.530Z,22.72
2024-04-12T09:29:00.546Z,22.71
2024-04-12T09:30:00.597Z,22.71
2024-04-12T09:31:00.619Z,22.72
2024-04-12T09:32:00.560Z,22.73
2024-04-12T09:33:00.677Z,22.73
2024-04-12T09:34:00.888Z,22.73
2024-04-12T09:35:00.639Z,22.73
2024-04-12T09:36:00.743Z,22.73
2024-04-12T09:37:00.769Z,22.73
2024-04-12T09:38:00.901Z,22.71
2024-04-12T09:39:01.079Z,22.71
2024-04-12T09:40:01.121Z,22.71
2024-04-12T09:41:01.213Z,22.71
2024-04-12T09:42:01.420Z,22.71
2024-04-12T09:43:01.503Z,22.71
2024-04-12T09:44:01.559Z,22.72
2024-04-12T09:45:01.876Z,22.72
2024-04-12T09:46:01.822Z,22.73
2024-04-12T09:47:01.986Z,22.74
2024-04-12T09:48:02.181Z,22.73
2024-04-12T09:49:02.246Z,22.63
2024-04-12T09:50:02.238Z,22.57
2024-04-12T09:51:02.399Z,22.56
2024-04-12T09:52:02.465Z,22.51
2024-04-12T09:53:02.544Z,22.57
2024-04-12T09:54:02.670Z,22.65
2024-04-12T09:55:02.762Z,22.72
2024-04-12T09:56:03.799Z,22.73
2024-04-12T09:57:03.027Z,22.76
2024-04-12T09:58:02.932Z,22.80
2024-04-12T09:59:02.991Z,22.85
2024-04-12T10:00:03.037Z,22.90
2024-04-12T10:01:03.119Z,22.94
2024-04-12T10:02:03.174Z,23.00
2024-04-12T10:03:03.339Z,23.06
2024-04-12T10:04:03.406Z,23.06
2024-04-12T10:05:03.419Z,23.11
2024-04-12T10:06:03.517Z,23.16
2024-04-12T10:07:03.565Z,23.19
2024-04-12T10:08:03.618Z,23.25
2024-04-12T10:09:03.685Z,23.30
2024-04-12T10:10:03.796Z,23.32
2024-04-12T10:11:03.817Z,23.33
2024-04-12T10:12:03.953Z,23.33
2024-04-12T10:13:03.964Z,23.34
2024-04-12T10:14:03.962Z,23.38
2024-04-12T10:15:04.050Z,23.43
2024-04-12T10:16:04.136Z,23.45
2024-04-12T10:17:08.549Z,23.49
2024-04-12T10:18:04.537Z,23.50
2024-04-12T10:19:04.325Z,23.52
2024-04-12T10:20:04.178Z,23.53
2024-04-12T10:21:04.234Z,23.55
2024-04-12T10:22:04.253Z,23.57
2024-04-12T10:23:04.186Z,23.59
2024-04-12T10:24:04.228Z,23.64
2024-04-12T10:25:04.192Z,23.67
2024-04-12T10:26:04.177Z,23.70
2024-04-12T10:27:08.759Z,23.72
2024-04-12T10:28:04.232Z,23.75
2024-04-12T10:29:04.196Z,23.78
2024-04-12T10:30:04.245Z,23.81
2024-04-12T10:31:04.252Z,23.85
2024-04-12T10:32:04.273Z,23.87
2024-04-12T10:33:04.579Z,23.89
2024-04-12T10:34:04.384Z,23.92
2024-04-12T10:35:04.190Z,23.94
2024-04-12T10:36:04.248Z,23.97
2024-04-12T10:37:04.185Z,23.96
2024-04-12T10:38:04.223Z,23.99
2024-04-12T10:39:04.281Z,23.98
2024-04-12T10:40:04.250Z,23.96
2024-04-12T10:41:04.251Z,23.90
2024-04-12T10:42:04.274Z,23.88
2024-04-12T10:43:04.226Z,23.88
2024-04-12T10:44:04.236Z,23.91
2024-04-12T10:45:04.387Z,23.91
2024-04-12T10:46:04.242Z,23.95
2024-04-12T10:47:04.270Z,23.95
2024-04-12T10:48:04.288Z,24.00
2024-04-12T10:49:04.228Z,24.03
2024-04-12T10:50:04.231Z,24.06
2024-04-12T10:51:04.258Z,24.10
2024-04-12T10:52:04.220Z,24.12
2024-04-12T10:53:04.229Z,24.15
2024-04-12T10:54:04.242Z,24.16
2024-04-12T10:55:05.280Z,24.22
2024-04-12T10:56:04.477Z,24.33
2024-04-12T10:57:07.338Z,24.44
2024-04-12T10:58:04.237Z,24.50
2024-04-12T10:59:04.247Z,24.54
2024-04-12T11:00:04.277Z,24.56
2024-04-12T11:01:04.304Z,24.57
2024-04-12T11:02:04.315Z,24.57
2024-04-12T11:03:08.911Z,24.55
2024-04-12T11:04:05.447Z,24.54
2024-04-12T11:05:04.296Z,24.52
2024-04-12T11:06:04.387Z,24.50
2024-04-12T11:07:04.266Z,24.49
2024-04-12T11:08:12.200Z,24.47
2024-04-12T11:09:05.286Z,24.46
2024-04-12T11:10:04.283Z,24.44
2024-04-12T11:11:04.276Z,24.43
2024-04-12T11:12:04.324Z,24.43
2024-04-12T11:13:04.278Z,24.42
2024-04-12T11:14:04.269Z,24.41
2024-04-12T11:15:04.302Z,24.40
2024-04-12T11:16:04.299Z,24.41
2024-04-12T11:17:04.423Z,24.39
2024-04-12T11:18:04.776Z,24.38
2024-04-12T11:19:04.834Z,24.38
2024-04-12T11:20:04.780Z,24.37
2024-04-12T11:21:04.938Z,24.37
2024-04-12T11:22:05.039Z,24.37
2024-04-12T11:23:05.138Z,24.37
2024-04-12T11:24:05.302Z,24.37
2024-04-12T11:25:05.354Z,24.37
2024-04-12T11:26:05.560Z,24.37
2024-04-12T11:27:05.946Z,24.37
2024-04-12T11:28:05.766Z,24.38
2024-04-12T11:29:05.884Z,24.38
2024-04-12T11:30:06.075Z,24.38
2024-04-12T11:31:06.145Z,24.39
2024-04-12T11:32:06.259Z,24.39
2024-04-12T11:33:06.820Z,24.40
2024-04-12T11:34:11.769Z,24.40
2024-04-12T11:35:07.508Z,24.41
2024-04-12T11:36:06.516Z,24.41
2024-04-12T11:37:06.410Z,24.42
2024-04-12T11:38:06.430Z,24.42
2024-04-12T11:39:06.437Z,24.41
2024-04-12T11:40:06.415Z,24.42
2024-04-12T11:41:06.420Z,24.43
2024-04-12T11:42:06.598Z,24.42
2024-04-12T11:43:06.669Z,24.44
2024-04-12T11:44:06.777Z,24.45
2024-04-12T11:45:06.969Z,24.46
2024-04-12T11:46:07.038Z,24.46
2024-04-12T11:47:07.250Z,24.47
2024-04-12T11:48:07.465Z,24.48
2024-04-12T11:49:07.759Z,24.48
2024-04-12T11:50:07.571Z,24.49
2024-04-12T11:51:07.709Z,24.49
2024-04-12T11:52:07.815Z,24.51
2024-04-12T11:53:07.962Z,24.54
2024-04-12T11:54:08.188Z,24.54
2024-04-12T11:55:08.252Z,24.55
2024-04-12T11:56:08.349Z,24.57
2024-04-12T11:57:08.550Z,24.58
2024-04-12T11:58:08.602Z,24.59
2024-04-12T11:59:08.716Z,24.60
2024-04-12T12:00:09.026Z,24.61
2024-04-12T12:01:09.002Z,24.62
2024-04-12T12:02:09.155Z,24.63
2024-04-12T12:03:09.287Z,24.62
2024-04-12T12:04:09.409Z,24.63
2024-04-12T12:05:09.480Z,24.66
2024-04-12T12:06:09.693Z,24.68
2024-04-12T12:07:12.027Z,24.69
2024-04-12T12:08:09.911Z,24.73
2024-04-12T12:09:10.001Z,24.76
2024-04-12T12:10:10.034Z,24.77
2024-04-12T12:11:10.054Z,24.76
2024-04-12T12:12:10.192Z,24.78
2024-04-12T12:13:10.179Z,24.78
2024-04-12T12:14:10.234Z,24.79
2024-04-12T12:15:10.345Z,24.81
2024-04-12T12:16:10.336Z,24.83
2024-04-12T12:17:10.414Z,24.86
2024-04-12T12:18:10.586Z,24.89
2024-04-12T12:19:10.523Z,24.91
2024-04-12T12:20:10.610Z,24.95
2024-04-12T12:21:10.753Z,25.00
2024-04-12T12:22:10.815Z,25.03
2024-04-12T12:23:10.962Z,25.05
2024-04-12T12:24:10.991Z,25.07
2024-04-12T12:25:11.095Z,25.08
2024-04-12T12:26:11.247Z,25.09
2024-04-12T12:27:11.395Z,25.11
2024-04-12T12:28:11.362Z,25.12
2024-04-12T12:29:11.501Z,25.14
2024-04-12T12:30:11.575Z,25.14
2024-04-12T12:31:11.624Z,25.15
2024-04-12T12:32:18.135Z,25.15
2024-04-12T12:33:11.884Z,25.16
2024-04-12T12:34:11.807Z,25.17
2024-04-12T12:35:11.727Z,25.17
2024-04-12T12:36:11.975Z,25.18
2024-04-12T12:37:11.739Z,25.20
2024-04-12T12:38:11.756Z,25.20
2024-04-12T12:39:11.825Z,25.22
2024-04-12T12:40:11.749Z,25.23
2024-04-12T12:41:11.767Z,25.26
2024-04-12T12:42:11.876Z,25.27
2024-04-12T12:43:11.738Z,25.29
2024-04-12T12:44:11.725Z,25.30
2024-04-12T12:45:13.827Z,25.32
2024-04-12T12:46:11.788Z,25.32
2024-04-12T12:47:11.758Z,25.33
2024-04-12T12:48:11.853Z,25.34
2024-04-12T12:49:11.770Z,25.35
2024-04-12T12:50:11.745Z,25.36
2024-04-12T12:51:11.803Z,25.38
2024-04-12T12:52:11.752Z,25.39
2024-04-12T12:53:11.747Z,25.40